Time;durP1;ratioP1;P1;durP2;ratioP2;P2;SDS_P1;SDS_P2;PMS_P1;PMS_P2;Temp;Humidity;BMP_temperature;BMP_pressure;BME280_temperature;BME280_humidity;BME280_pressure;Samples;Min_cycle;Max_cycle;Signal;HPM_P1;HPM_P2
2022/11/29 00:00:31;;;;;;;;;;;;;;;;;;5043503;28;19971;-59
2022/11/29 00:03:04;;;;;;;;;;;;;;;;;;5046546;28;20362;-60
2022/11/29 00:05:30;;;;;;;;;;;;;;;;;;5041741;28;20015;-61
2022/11/29 00:07:56;;;;;;;;;;;;;;;;;;5045648;28;20004;-61
2022/11/29 00:10:25;;;;;;;;;;;;;;;;;;5043764;28;20347;-61
2022/11/29 00:12:54;;;;;;;;;;;;;;;;;;5047280;28;19909;-59
2022/11/29 00:15:20;;;;;;;;;;;;;;;;;;5044381;28;19908;-60
2022/11/29 00:17:46;;;;;;;;;;;;;;;;;;5046538;28;19909;-62
2022/11/29 00:20:12;;;;;;;;;;;;;;;;;;5043014;28;19917;-60
2022/11/29 00:22:38;;;;;;;;;;;;;;;;;;5045279;28;19912;-60
2022/11/29 00:25:04;;;;;;;;;;;;;;;;;;5045993;28;19971;-62
2022/11/29 00:27:35;;;;;;;;;;;;;;;;;;5046539;28;19913;-60
2022/11/29 00:30:01;;;;;;;;;;;;;;;;;;5044485;28;19917;-59
2022/11/29 00:32:27;;;;;;;;;;;;;;;;;;5046324;28;19919;-60
2022/11/29 00:35:00;;;;;;;;;;;;;;;;;;5047770;28;19932;-60
2022/11/29 00:37:26;;;;;;;;;;;;;;;;;;5043370;28;19920;-59
2022/11/29 00:39:52;;;;;;;;;;;;;;;;;;5041145;28;19916;-61
2022/11/29 00:42:23;;;;;;;;;;;;;;;;;;5046013;28;20771;-59
2022/11/29 00:44:52;;;;;;;;;;;;;;;;;;5045207;28;20370;-59
2022/11/29 00:47:18;;;;;;;;;;;;;;;;;;5046135;28;20421;-59
2022/11/29 00:49:44;;;;;;;;;;;;;;;;;;5044739;28;19909;-59
2022/11/29 00:52:16;;;;;;;;;;;;;;;;;;5043469;28;19975;-60
2022/11/29 00:54:42;;;;;;;;;;;;;;;;;;5046702;28;19909;-59
2022/11/29 00:57:08;;;;;;;;;;;;;;;;;;5048726;28;19941;-61
2022/11/29 00:59:34;;;;;;;;;;;;;;;;;;5046103;28;19956;-58
2022/11/29 01:02:00;;;;;;;;;;;;;;;;;;5045956;28;20389;-60
2022/11/29 01:04:26;;;;;;;;;;;;;;;;;;5046694;28;19916;-59
2022/11/29 01:06:52;;;;;;;;;;;;;;;;;;5044000;28;19909;-60
2022/11/29 01:09:18;;;;;;;;;;;;;;;;;;5048370;28;19939;-61
2022/11/29 01:11:44;;;;;;;;;;;;;;;;;;5048713;28;19949;-59
2022/11/29 01:14:15;;;;;;;;;;;;;;;;;;5052016;28;19913;-61
2022/11/29 01:16:41;;;;;;;;;;;;;;;;;;5050833;28;20374;-61
2022/11/29 01:19:16;;;;;;;;;;;;;;;;;;5050446;28;19924;-61
2022/11/29 01:21:42;;;;;;;;;;;;;;;;;;5050240;28;19916;-61
2022/11/29 01:24:08;;;;;;;;;;;;;;;;;;5049669;28;19913;-61
2022/11/29 01:26:34;;;;;;;;;;;;;;;;;;5050775;28;20448;-59
2022/11/29 01:29:00;;;;;;;;;;;;;;;;;;5051020;28;19952;-60
2022/11/29 01:31:26;;;;;;;;;;;;;;;;;;5051387;28;19913;-59
2022/11/29 01:33:51;;;;;;;;;;;;;;;;;;5049661;28;19920;-62
2022/11/29 01:36:17;;;;;;;;;;;;;;;;;;5046485;28;19978;-60
2022/11/29 01:38:43;;;;;;;;;;;;;;;;;;5050153;28;20295;-60
2022/11/29 01:41:09;;;;;;;;;;;;;;;;;;5049085;28;20443;-60
2022/11/29 01:43:38;;;;;;;;;;;;;;;;;;5049380;28;19921;-62
2022/11/29 01:46:07;;;;;;;;;;;;;;;;;;5046725;28;20551;-61
2022/11/29 01:48:35;;;;;;;;;;;;;;;;;;5049860;28;20366;-60
2022/11/29 01:51:01;;;;;;;;;;;;;;;;;;5043051;28;19925;-58
2022/11/29 01:53:27;;;;;;;;;;;;;;;;;;5045945;28;19993;-59
2022/11/29 01:55:53;;;;;;;;;;;;;;;;;;5049571;28;19948;-59
2022/11/29 01:58:19;;;;;;;;;;;;;;;;;;5048696;28;20370;-59
2022/11/29 02:00:47;;;;;;;;;;;;;;;;;;5047016;28;19909;-61
2022/11/29 02:03:13;;;;;;;;;;;;;;;;;;5049118;28;20381;-59
2022/11/29 02:05:42;;;;;;;;;;;;;;;;;;5046827;28;20000;-61
2022/11/29 02:08:14;;;;;;;;;;;;;;;;;;5050230;28;19917;-58
2022/11/29 02:10:43;;;;;;;;;;;;;;;;;;5046597;28;20271;-60
2022/11/29 02:13:09;;;;;;;;;;;;;;;;;;5044340;28;19917;-59
2022/11/29 02:15:35;;;;;;;;;;;;;;;;;;5045033;28;19916;-60
2022/11/29 02:18:01;;;;;;;;;;;;;;;;;;5043237;28;20580;-61
2022/11/29 02:20:27;;;;;;;;;;;;;;;;;;5045120;28;19931;-58
2022/11/29 02:22:53;;;;;;;;;;;;;;;;;;5049869;28;19913;-58
2022/11/29 02:25:19;;;;;;;;;;;;;;;;;;5050233;28;19909;-60
2022/11/29 02:27:45;;;;;;;;;;;;;;;;;;5047552;28;19921;-58
2022/11/29 02:30:11;;;;;;;;;;;;;;;;;;5048908;28;19912;-58
2022/11/29 02:32:37;;;;;;;;;;;;;;;;;;5044678;28;19927;-58
2022/11/29 02:35:03;;;;;;;;;;;;;;;;;;5049624;28;19913;-60
2022/11/29 02:37:28;;;;;;;;;;;;;;;;;;5051270;28;19915;-59
2022/11/29 02:39:57;;;;;;;;;;;;;;;;;;5049337;28;19931;-60
2022/11/29 02:42:23;;;;;;;;;;;;;;;;;;5050461;28;19970;-60
2022/11/29 02:44:49;;;;;;;;;;;;;;;;;;5052648;28;20420;-62
2022/11/29 02:47:15;;;;;;;;;;;;;;;;;;5048528;28;20469;-59
2022/11/29 02:49:40;;;;;;;;;;;;;;;;;;5048024;28;20421;-61
2022/11/29 02:52:06;;;;;;;;;;;;;;;;;;5046611;28;20271;-57
2022/11/29 02:54:32;;;;;;;;;;;;;;;;;;5049487;28;20047;-61
2022/11/29 02:56:58;;;;;;;;;;;;;;;;;;5049018;28;19908;-57
2022/11/29 02:59:24;;;;;;;;;;;;;;;;;;5047985;28;20003;-60
2022/11/29 03:01:50;;;;;;;;;;;;;;;;;;5047969;28;19912;-59
2022/11/29 03:04:16;;;;;;;;;;;;;;;;;;5049703;28;19909;-58
2022/11/29 03:06:41;;;;;;;;;;;;;;;;;;5048798;28;19916;-59
2022/11/29 03:09:07;;;;;;;;;;;;;;;;;;5046396;28;20450;-61
2022/11/29 03:11:33;;;;;;;;;;;;;;;;;;5047663;28;19909;-59
2022/11/29 03:13:59;;;;;;;;;;;;;;;;;;5050380;28;19909;-59
2022/11/29 03:16:25;;;;;;;;;;;;;;;;;;5046614;28;20270;-60
2022/11/29 03:18:54;;;;;;;;;;;;;;;;;;5045764;28;19917;-57
2022/11/29 03:21:20;;;;;;;;;;;;;;;;;;5043739;28;19919;-61
2022/11/29 03:23:46;;;;;;;;;;;;;;;;;;5049701;28;19913;-62
2022/11/29 03:26:12;;;;;;;;;;;;;;;;;;5048790;28;19945;-60
2022/11/29 03:28:38;;;;;;;;;;;;;;;;;;5047015;28;20389;-61
2022/11/29 03:31:04;;;;;;;;;;;;;;;;;;5046228;28;19982;-59
2022/11/29 03:33:30;;;;;;;;;;;;;;;;;;5042543;28;19917;-59
2022/11/29 03:35:55;;;;;;;;;;;;;;;;;;5084330;22;19975;-57
2022/11/29 03:38:21;;;;;;;;;;;;;;;;;;5067240;28;19915;-62
2022/11/29 03:40:47;;;;;;;;;;;;;;;;;;5072421;28;19919;-57
2022/11/29 03:43:13;;;;;;;;;;;;;;;;;;5068252;28;19987;-59
2022/11/29 03:45:39;;;;;;;;;;;;;;;;;;5068937;28;19919;-61
2022/11/29 03:48:05;;;;;;;;;;;;;;;;;;5062420;28;19966;-60
2022/11/29 03:50:31;;;;;;;;;;;;;;;;;;5060926;28;19940;-59
2022/11/29 03:52:57;;;;;;;;;;;;;;;;;;5063451;28;19909;-58
2022/11/29 03:55:22;;;;;;;;;;;;;;;;;;5064987;28;19958;-60
2022/11/29 03:57:48;;;;;;;;;;;;;;;;;;5063128;28;19931;-57
2022/11/29 04:00:14;;;;;;;;;;;;;;;;;;5061285;28;19908;-59
2022/11/29 04:02:40;;;;;;;;;;;;;;;;;;5060519;28;19916;-60
2022/11/29 04:05:06;;;;;;;;;;;;;;;;;;5066113;28;20370;-60
2022/11/29 04:07:32;;;;;;;;;;;;;;;;;;5064228;28;19920;-58
2022/11/29 04:09:58;;;;;;;;;;;;;;;;;;5061148;28;19913;-58
2022/11/29 04:12:23;;;;;;;;;;;;;;;;;;5062892;28;20451;-59
2022/11/29 04:14:49;;;;;;;;;;;;;;;;;;5063922;28;20020;-58
2022/11/29 04:17:15;;;;;;;;;;;;;;;;;;5060961;28;19916;-60
2022/11/29 04:19:41;;;;;;;;;;;;;;;;;;5063753;28;19957;-56
2022/11/29 04:22:07;;;;;;;;;;;;;;;;;;5066326;28;19933;-60
2022/11/29 04:24:33;;;;;;;;;;;;;;;;;;5065435;28;20357;-57
2022/11/29 04:26:59;;;;;;;;;;;;;;;;;;5059274;28;19912;-58
2022/11/29 04:29:25;;;;;;;;;;;;;;;;;;5060980;28;19912;-59
2022/11/29 04:31:50;;;;;;;;;;;;;;;;;;5060468;28;20263;-57
2022/11/29 04:34:16;;;;;;;;;;;;;;;;;;5066531;28;19961;-60
2022/11/29 04:36:42;;;;;;;;;;;;;;;;;;5065033;28;20422;-59
2022/11/29 04:39:08;;;;;;;;;;;;;;;;;;5062201;28;19912;-60
2022/11/29 04:41:34;;;;;;;;;;;;;;;;;;5064930;28;20433;-59
2022/11/29 04:44:00;;;;;;;;;;;;;;;;;;5069653;28;19912;-57
2022/11/29 04:46:26;;;;;;;;;;;;;;;;;;5068609;28;19927;-59
2022/11/29 04:48:51;;;;;;;;;;;;;;;;;;5072235;28;20361;-57
2022/11/29 04:51:17;;;;;;;;;;;;;;;;;;5069418;28;19915;-60
2022/11/29 04:53:43;;;;;;;;;;;;;;;;;;5071115;28;19985;-58
2022/11/29 04:56:09;;;;;;;;;;;;;;;;;;5067631;28;19912;-58
2022/11/29 04:58:35;;;;;;;;;;;;;;;;;;5069558;28;19930;-60
2022/11/29 05:01:01;;;;;;;;;;;;;;;;;;5066847;28;19909;-57
2022/11/29 05:03:27;;;;;;;;;;;;;;;;;;5067377;28;19908;-60
2022/11/29 05:05:53;;;;;;;;;;;;;;;;;;5068505;28;19917;-57
2022/11/29 05:08:19;;;;;;;;;;;;;;;;;;5071404;28;19908;-57
2022/11/29 05:10:45;;;;;;;;;;;;;;;;;;5066038;28;19915;-58
2022/11/29 05:13:10;;;;;;;;;;;;;;;;;;5066462;28;19916;-61
2022/11/29 05:15:36;;;;;;;;;;;;;;;;;;5062330;28;19952;-60
2022/11/29 05:18:02;;;;;;;;;;;;;;;;;;5066618;28;21527;-61
2022/11/29 05:20:28;;;;;;;;;;;;;;;;;;5064085;28;20062;-59
2022/11/29 05:22:54;;;;;;;;;;;;;;;;;;5065697;28;19916;-60
2022/11/29 05:25:20;;;;;;;;;;;;;;;;;;5062487;28;20500;-60
2022/11/29 05:27:46;;;;;;;;;;;;;;;;;;5063586;28;19958;-57
2022/11/29 05:30:11;;;;;;;;;;;;;;;;;;5047625;28;19909;-60
2022/11/29 05:32:37;;;;;;;;;;;;;;;;;;5067255;28;19912;-61
2022/11/29 05:35:03;;;;;;;;;;;;;;;;;;5065446;28;20622;-60
2022/11/29 05:37:29;;;;;;;;;;;;;;;;;;5065446;28;19912;-59
2022/11/29 05:39:55;;;;;;;;;;;;;;;;;;5061180;28;19913;-60
2022/11/29 05:42:21;;;;;;;;;;;;;;;;;;5071635;28;19919;-58
2022/11/29 05:44:47;;;;;;;;;;;;;;;;;;5067028;28;19908;-60
2022/11/29 05:47:13;;;;;;;;;;;;;;;;;;5069849;28;19912;-60
2022/11/29 05:49:39;;;;;;;;;;;;;;;;;;5047342;28;19999;-61
2022/11/29 05:52:04;;;;;;;;;;;;;;;;;;5067488;28;20340;-60
2022/11/29 05:54:30;;;;;;;;;;;;;;;;;;5060110;28;20677;-58
2022/11/29 05:56:56;;;;;;;;;;;;;;;;;;5058962;28;20007;-59
2022/11/29 05:59:22;;;;;;;;;;;;;;;;;;5067620;28;19915;-60
2022/11/29 06:01:48;;;;;;;;;;;;;;;;;;5068238;28;19943;-60
2022/11/29 06:04:14;;;;;;;;;;;;;;;;;;5065759;28;19908;-61
2022/11/29 06:06:40;;;;;;;;;;;;;;;;;;5062657;28;19919;-62
2022/11/29 06:09:06;;;;;;;;;;;;;;;;;;5065047;28;19909;-62
2022/11/29 06:11:32;;;;;;;;;;;;;;;;;;5065762;28;19913;-62
2022/11/29 06:13:58;;;;;;;;;;;;;;;;;;5065651;28;19995;-64
2022/11/29 06:16:24;;;;;;;;;;;;;;;;;;5067093;28;20024;-62
2022/11/29 06:18:50;;;;;;;;;;;;;;;;;;5066826;28;19966;-63
2022/11/29 06:21:16;;;;;;;;;;;;;;;;;;5064799;28;20441;-62
2022/11/29 06:23:41;;;;;;;;;;;;;;;;;;5063530;28;20000;-61
2022/11/29 06:26:07;;;;;;;;;;;;;;;;;;5069530;28;20344;-61
2022/11/29 06:28:33;;;;;;;;;;;;;;;;;;5064277;28;19908;-61
2022/11/29 06:31:00;;;;;;;;;;;;;;;;;;5063317;28;19909;-62
2022/11/29 06:33:27;;;;;;;;;;;;;;;;;;5067243;28;19908;-62
2022/11/29 06:35:53;;;;;;;;;;;;;;;;;;5059432;28;19917;-61
2022/11/29 06:38:19;;;;;;;;;;;;;;;;;;5068023;28;19908;-61
2022/11/29 06:40:45;;;;;;;;;;;;;;;;;;5068367;28;20002;-62
2022/11/29 06:43:11;;;;;;;;;;;;;;;;;;5070186;28;20306;-61
2022/11/29 06:45:36;;;;;;;;;;;;;;;;;;5066305;28;19912;-62
2022/11/29 06:48:02;;;;;;;;;;;;;;;;;;5065989;28;19912;-62
2022/11/29 06:50:28;;;;;;;;;;;;;;;;;;5049877;28;19909;-62
2022/11/29 06:52:57;;;;;;;;;;;;;;;;;;5067174;28;20004;-62
2022/11/29 06:55:23;;;;;;;;;;;;;;;;;;5064089;28;20305;-62
2022/11/29 06:57:48;;;;;;;;;;;;;;;;;;5066105;28;19919;-62
2022/11/29 07:00:15;;;;;;;;;;;;;;;;;;5069364;28;20471;-62
2022/11/29 07:02:40;;;;;;;;;;;;;;;;;;5070730;28;20436;-63
2022/11/29 07:05:06;;;;;;;;;;;;;;;;;;5070016;28;19915;-62
2022/11/29 07:07:33;;;;;;;;;;;;;;;;;;5071568;28;19912;-62
2022/11/29 07:09:58;;;;;;;;;;;;;;;;;;5048737;28;19915;-61
2022/11/29 07:12:24;;;;;;;;;;;;;;;;;;5067149;28;19909;-61
2022/11/29 07:14:50;;;;;;;;;;;;;;;;;;5071112;28;19912;-60
2022/11/29 07:17:16;;;;;;;;;;;;;;;;;;5065072;28;19931;-60
2022/11/29 07:19:42;;;;;;;;;;;;;;;;;;5062004;28;19909;-62
2022/11/29 07:22:08;;;;;;;;;;;;;;;;;;5065139;28;19915;-62
2022/11/29 07:24:34;;;;;;;;;;;;;;;;;;5066440;28;19908;-61
2022/11/29 07:27:00;;;;;;;;;;;;;;;;;;5068406;28;20594;-62
2022/11/29 07:29:26;;;;;;;;;;;;;;;;;;5063427;28;19908;-60
2022/11/29 07:31:52;;;;;;;;;;;;;;;;;;5063029;28;20007;-62
2022/11/29 07:34:18;;;;;;;;;;;;;;;;;;5064190;28;19963;-61
2022/11/29 07:36:43;;;;;;;;;;;;;;;;;;5070326;28;19930;-62
2022/11/29 07:39:09;;;;;;;;;;;;;;;;;;5062951;28;19970;-62
2022/11/29 07:41:35;;;;;;;;;;;;;;;;;;5069350;28;20258;-62
2022/11/29 07:44:01;;;;;;;;;;;;;;;;;;5068827;28;19962;-62
2022/11/29 07:46:27;;;;;;;;;;;;;;;;;;5068493;28;19936;-59
2022/11/29 07:48:53;;;;;;;;;;;;;;;;;;5066568;28;19915;-61
2022/11/29 07:51:19;;;;;;;;;;;;;;;;;;5069630;28;20180;-62
2022/11/29 07:53:45;;;;;;;;;;;;;;;;;;5063077;28;19953;-62
2022/11/29 07:56:11;;;;;;;;;;;;;;;;;;5062441;28;19909;-62
2022/11/29 07:58:37;;;;;;;;;;;;;;;;;;5067551;28;20054;-62
2022/11/29 08:01:03;;;;;;;;;;;;;;;;;;5065416;28;20358;-62
2022/11/29 08:03:29;;;;;;;;;;;;;;;;;;5063970;28;19919;-62
2022/11/29 08:05:54;;;;;;;;;;;;;;;;;;5065819;28;19995;-62
2022/11/29 08:08:20;;;;;;;;;;;;;;;;;;5070301;28;19910;-62
2022/11/29 08:10:46;;;;;;;;;;;;;;;;;;5065980;28;20358;-62
2022/11/29 08:13:12;;;;;;;;;;;;;;;;;;5067745;28;20021;-60
2022/11/29 08:15:38;;;;;;;;;;;;;;;;;;5060664;28;20377;-62
2022/11/29 08:18:04;;;;;;;;;;;;;;;;;;5065820;28;19908;-61
2022/11/29 08:20:30;;;;;;;;;;;;;;;;;;5067734;28;19912;-60
2022/11/29 08:22:56;;;;;;;;;;;;;;;;;;5066678;28;19913;-61
2022/11/29 08:25:22;;;;;;;;;;;;;;;;;;5069395;28;19955;-58
2022/11/29 08:27:48;;;;;;;;;;;;;;;;;;5069719;28;19927;-60
2022/11/29 08:30:17;;;;;;;;;;;;;;;;;;5067007;28;19916;-61
2022/11/29 08:32:43;;;;;;;;;;;;;;;;;;5060652;28;20254;-61
2022/11/29 08:35:09;;;;;;;;;;;;;;;;;;5063765;28;19962;-61
2022/11/29 08:37:36;;;;;;;;;;;;;;;;;;5068745;28;19908;-61
2022/11/29 08:40:03;;;;;;;;;;;;;;;;;;5069793;28;19904;-61
2022/11/29 08:42:29;;;;;;;;;;;;;;;;;;5064114;28;19912;-61
2022/11/29 08:44:55;;;;;;;;;;;;;;;;;;5064131;28;19930;-59
2022/11/29 08:47:36;;;;;;;;;;;;;;;;;;5065239;28;19924;-61
2022/11/29 08:50:01;;;;;;;;;;;;;;;;;;5062637;28;20507;-62
2022/11/29 08:55:12;;;;;;;;;;;;;;;;;;5064511;28;19916;-61
2022/11/29 08:57:38;;;;;;;;;;;;;;;;;;5066910;28;19923;-62
2022/11/29 09:00:04;;;;;;;;;;;;;;;;;;5065939;28;19916;-61
2022/11/29 09:02:30;;;;;;;;;;;;;;;;;;5066637;28;20003;-61
2022/11/29 09:04:55;;;;;;;;;;;;;;;;;;5066822;28;19916;-62
2022/11/29 09:07:21;;;;;;;;;;;;;;;;;;5064782;28;20272;-61
2022/11/29 09:09:47;;;;;;;;;;;;;;;;;;5046328;28;19908;-61
2022/11/29 09:12:13;;;;;;;;;;;;;;;;;;5066457;28;19961;-62
2022/11/29 09:14:39;;;;;;;;;;;;;;;;;;5062212;28;19919;-60
2022/11/29 09:17:05;;;;;;;;;;;;;;;;;;5060951;28;20409;-62
2022/11/29 09:19:31;;;;;;;;;;;;;;;;;;5066765;28;19909;-61
2022/11/29 09:21:57;;;;;;;;;;;;;;;;;;5069435;28;19908;-61
2022/11/29 09:24:22;;;;;;;;;;;;;;;;;;5068145;28;19909;-61
2022/11/29 09:26:48;;;;;;;;;;;;;;;;;;5068479;28;20284;-62
2022/11/29 09:29:14;;;;;;;;;;;;;;;;;;5072463;28;19922;-61
2022/11/29 09:31:40;;;;;;;;;;;;;;;;;;5068188;28;19913;-61
2022/11/29 09:34:06;;;;;;;;;;;;;;;;;;5067942;28;19962;-61
2022/11/29 09:36:32;;;;;;;;;;;;;;;;;;5075673;22;19925;-64
2022/11/29 09:38:58;;;;;;;;;;;;;;;;;;5014528;28;19908;-63
2022/11/29 09:41:24;;;;;;;;;;;;;;;;;;5030626;28;19995;-62
2022/11/29 09:43:50;;;;;;;;;;;;;;;;;;5038281;28;19909;-62
2022/11/29 09:46:16;;;;;;;;;;;;;;;;;;5035193;28;19916;-63
2022/11/29 09:48:42;;;;;;;;;;;;;;;;;;5036024;28;19997;-62
2022/11/29 09:51:08;;;;;;;;;;;;;;;;;;5031115;28;20003;-62
2022/11/29 09:53:34;;;;;;;;;;;;;;;;;;5030222;28;19915;-62
2022/11/29 09:56:00;;;;;;;;;;;;;;;;;;5038041;28;20367;-62
2022/11/29 09:58:26;;;;;;;;;;;;;;;;;;5031390;28;19952;-63
2022/11/29 10:00:52;;;;;;;;;;;;;;;;;;5034968;28;19913;-62
2022/11/29 10:03:18;;;;;;;;;;;;;;;;;;5036427;28;19921;-60
2022/11/29 10:05:45;;;;;;;;;;;;;;;;;;5031069;28;19932;-62
2022/11/29 10:08:11;;;;;;;;;;;;;;;;;;5027620;28;19956;-62
2022/11/29 10:10:39;;;;;;;;;;;;;;;;;;5033876;28;19952;-59
2022/11/29 10:13:05;;;;;;;;;;;;;;;;;;5031454;28;19913;-62
2022/11/29 10:15:31;;;;;;;;;;;;;;;;;;5030016;28;19913;-62
2022/11/29 10:17:57;;;;;;;;;;;;;;;;;;5036321;28;20438;-61
2022/11/29 10:20:23;;;;;;;;;;;;;;;;;;5014287;28;20036;-61
2022/11/29 10:22:52;;;;;;;;;;;;;;;;;;5030003;28;19955;-63
2022/11/29 10:25:18;;;;;;;;;;;;;;;;;;5027728;28;19913;-62
2022/11/29 10:27:44;;;;;;;;;;;;;;;;;;5032459;28;19913;-62
2022/11/29 10:30:09;;;;;;;;;;;;;;;;;;5036820;28;19913;-62
2022/11/29 10:32:35;;;;;;;;;;;;;;;;;;5034417;28;19905;-61
2022/11/29 10:35:01;;;;;;;;;;;;;;;;;;5031083;28;19958;-62
2022/11/29 10:37:31;;;;;;;;;;;;;;;;;;5026641;28;19917;-63
2022/11/29 10:39:57;;;;;;;;;;;;;;;;;;5034303;28;20659;-62
2022/11/29 10:45:08;;;;;;;;;;;;;;;;;;5027296;28;19920;-62
2022/11/29 10:47:34;;;;;;;;;;;;;;;;;;5031082;28;20266;-62
2022/11/29 10:49:59;;;;;;;;;;;;;;;;;;5034691;28;20020;-62
2022/11/29 10:52:25;;;;;;;;;;;;;;;;;;5029952;28;19916;-62
2022/11/29 10:54:51;;;;;;;;;;;;;;;;;;5027554;28;20437;-62
2022/11/29 10:57:17;;;;;;;;;;;;;;;;;;5030486;28;19947;-62
2022/11/29 10:59:43;;;;;;;;;;;;;;;;;;5023749;28;19913;-62
2022/11/29 11:02:09;;;;;;;;;;;;;;;;;;5038969;28;20003;-63
2022/11/29 11:04:35;;;;;;;;;;;;;;;;;;5030646;28;19924;-62
2022/11/29 11:07:01;;;;;;;;;;;;;;;;;;5035350;28;20384;-62
2022/11/29 11:09:27;;;;;;;;;;;;;;;;;;5032172;28;19913;-62
2022/11/29 11:11:52;;;;;;;;;;;;;;;;;;5027805;28;19909;-63
2022/11/29 11:14:18;;;;;;;;;;;;;;;;;;5028382;28;19909;-62
2022/11/29 11:16:44;;;;;;;;;;;;;;;;;;5034624;28;19975;-63
2022/11/29 11:19:10;;;;;;;;;;;;;;;;;;5031020;28;19913;-63
2022/11/29 11:21:36;;;;;;;;;;;;;;;;;;5023574;28;20644;-62
2022/11/29 11:24:02;;;;;;;;;;;;;;;;;;5026502;28;19913;-63
2022/11/29 11:26:27;;;;;;;;;;;;;;;;;;5011624;28;19920;-62
2022/11/29 11:28:53;;;;;;;;;;;;;;;;;;5028316;28;19923;-63
2022/11/29 11:31:19;;;;;;;;;;;;;;;;;;5032172;28;20336;-62
2022/11/29 11:33:45;;;;;;;;;;;;;;;;;;5035434;28;19917;-62
2022/11/29 11:36:11;;;;;;;;;;;;;;;;;;5027511;28;20274;-61
2022/11/29 11:38:37;;;;;;;;;;;;;;;;;;5027349;28;19928;-63
2022/11/29 11:41:03;;;;;;;;;;;;;;;;;;5031774;28;19915;-61
2022/11/29 11:43:28;;;;;;;;;;;5.40;99.90;;;;;;5027690;28;19918;-62
2022/11/29 11:45:54;;;;;;;;;;;10.00;99.90;;;;;;5028821;28;19935;-62
2022/11/29 11:48:20;;;;;;;;;;;10.10;99.90;;;;;;5030597;28;19909;-63
2022/11/29 11:50:53;;;;;;;;;;;10.00;99.90;;;;;;5023760;28;20421;-62
2022/11/29 11:53:39;;;;;;;;;;;10.00;99.90;;;;;;5028296;28;19974;-63
2022/11/29 11:56:06;;;;;;;;;;;10.00;99.90;;;;;;5021014;28;19971;-63
2022/11/29 11:58:44;;;;;;;;;;;10.00;99.90;;;;;;5023696;28;19920;-62
2022/11/29 12:01:09;;;;;;;;;;;10.10;99.90;;;;;;5024045;28;19988;-62
2022/11/29 12:03:53;;;;;;;;;;;10.00;99.90;;;;;;5027070;28;19921;-63
2022/11/29 12:06:27;;;;;;;;;;;10.00;99.90;;;;;;5023339;28;19913;-62
2022/11/29 12:08:56;;;;;;;;;;;10.00;99.90;;;;;;5032833;28;19908;-62
2022/11/29 12:11:22;;;;;;;;;;;10.00;99.90;;;;;;5033685;28;19915;-62
2022/11/29 12:13:51;;;;;;;;;;;10.00;99.90;;;;;;5026704;28;19920;-63
2022/11/29 12:16:29;;;;;;;;;;;9.90;99.90;;;;;;5026912;28;20792;-62
2022/11/29 12:19:20;;;;;;;;;;;9.80;99.90;;;;;;5026039;28;19913;-63
2022/11/29 12:21:51;;;;;;;;;;;9.80;99.90;;;;;;5022326;28;19917;-63
2022/11/29 12:24:19;;;;;;;;;;;9.70;99.90;;;;;;5027300;28;19917;-63
2022/11/29 12:26:46;;;;;;;;;;;9.70;99.90;;;;;;5028226;28;19921;-62
2022/11/29 12:29:12;;;;;;;;;;;9.70;99.90;;;;;;5035079;28;19908;-62
2022/11/29 12:31:53;;;;;;;;;;;9.70;99.90;;;;;;5019283;28;19921;-63
2022/11/29 12:34:38;;;;;;;;;;;9.70;99.90;;;;;;5026966;28;20329;-62
2022/11/29 12:37:14;;;;;;;;;;;9.70;99.90;;;;;;5024865;28;20377;-63
2022/11/29 12:39:58;;;;;;;;;;;9.70;99.90;;;;;;5022689;28;19924;-62
2022/11/29 12:42:35;;;;;;;;;;;9.70;99.90;;;;;;5027696;28;19918;-63
2022/11/29 12:45:18;;;;;;;;;;;9.70;99.90;;;;;;5024724;28;20354;-63
2022/11/29 12:47:53;;;;;;;;;;;9.70;99.90;;;;;;5023338;28;20341;-61
2022/11/29 12:50:27;;;;;;;;;;;9.70;99.90;;;;;;5026127;28;19909;-63
2022/11/29 12:52:55;;;;;;;;;;;9.70;99.90;;;;;;5027812;28;19913;-60
2022/11/29 12:55:21;;;;;;;;;;;9.70;99.90;;;;;;5021653;28;19910;-62
2022/11/29 12:58:05;;;;;;;;;;;9.60;99.90;;;;;;5030828;28;19917;-62
2022/11/29 13:00:45;;;;;;;;;;;9.60;99.90;;;;;;5022635;28;19917;-63
2022/11/29 13:03:21;;;;;;;;;;;9.60;99.90;;;;;;5035486;28;19971;-62
2022/11/29 13:05:49;;;;;;;;;;;9.60;99.90;;;;;;5033870;28;19913;-62
2022/11/29 13:08:33;;;;;;;;;;;9.50;99.90;;;;;;5035205;28;19912;-62
2022/11/29 13:11:25;;;;;;;;;;;9.50;99.90;;;;;;5030496;28;19947;-62
2022/11/29 13:13:55;;;;;;;;;;;9.50;99.90;;;;;;4997133;28;19915;-62
2022/11/29 13:16:39;;;;;;;;;;;9.40;99.90;;;;;;5027245;28;19943;-62
2022/11/29 13:19:17;;;;;;;;;;;9.40;99.90;;;;;;5031187;28;19917;-62
2022/11/29 13:21:42;;;;;;;;;;;9.40;99.90;;;;;;5036744;28;19917;-60
2022/11/29 13:24:27;;;;;;;;;;;9.40;99.90;;;;;;5028222;28;19932;-63
2022/11/29 13:26:53;;;;;;;;;;;9.40;99.90;;;;;;5026938;28;20366;-63
2022/11/29 13:29:19;;;;;;;;;;;9.40;99.90;;;;;;5035591;28;19953;-63
2022/11/29 13:31:45;;;;;;;;;;;9.40;99.90;;;;;;5030749;28;19963;-59
2022/11/29 13:34:10;;;;;;;;;;;9.30;99.90;;;;;;5017609;28;20012;-62
2022/11/29 13:36:51;;;;;;;;;;;9.30;99.90;;;;;;5024927;28;19921;-63
2022/11/29 13:39:22;;;;;;;;;;;9.20;99.90;;;;;;5031159;28;19999;-64
2022/11/29 13:41:53;;;;;;;;;;;9.30;99.90;;;;;;5023160;28;19987;-63
2022/11/29 13:44:37;;;;;;;;;;;9.30;99.90;;;;;;5023374;28;20326;-63
2022/11/29 13:47:10;;;;;;;;;;;9.30;99.90;;;;;;5008082;28;20275;-60
2022/11/29 13:49:50;;;;;;;;;;;9.30;99.90;;;;;;5029586;28;19920;-60
2022/11/29 13:52:26;;;;;;;;;;;9.30;99.90;;;;;;5027352;28;19909;-62
2022/11/29 13:55:10;;;;;;;;;;;9.30;99.90;;;;;;5029742;28;20397;-63
2022/11/29 13:57:56;;;;;;;;;;;9.30;99.90;;;;;;5022816;28;19921;-62
2022/11/29 14:00:31;;;;;;;;;;;9.30;99.90;;;;;;5010497;28;19970;-62
2022/11/29 14:03:16;;;;;;;;;;;9.30;99.90;;;;;;5030611;28;20015;-64
2022/11/29 14:05:43;;;;;;;;;;;9.40;99.90;;;;;;5032284;28;19917;-61
2022/11/29 14:08:29;;;;;;;;;;;9.30;99.90;;;;;;5019330;28;20275;-62
2022/11/29 14:10:57;;;;;;;;;;;9.40;99.90;;;;;;5022267;28;19921;-63
2022/11/29 14:13:25;;;;;;;;;;;9.40;99.90;;;;;;5025611;28;19913;-63
2022/11/29 14:15:53;;;;;;;;;;;9.40;99.90;;;;;;5027194;28;19909;-63
2022/11/29 14:18:37;;;;;;;;;;;9.50;99.90;;;;;;5029779;28;19944;-62
2022/11/29 14:21:03;;;;;;;;;;;9.50;99.90;;;;;;5032439;28;20271;-62
2022/11/29 14:23:30;;;;;;;;;;;9.50;99.90;;;;;;5038655;28;19921;-62
2022/11/29 14:25:56;;;;;;;;;;;9.50;99.90;;;;;;5032266;28;19952;-63
2022/11/29 14:28:21;;;;;;;;;;;9.50;99.90;;;;;;5036159;28;19955;-61
2022/11/29 14:30:51;;;;;;;;;;;9.40;99.90;;;;;;5030674;28;19968;-63
2022/11/29 14:33:25;;;;;;;;;;;9.40;99.90;;;;;;5031303;28;19917;-63
2022/11/29 14:36:02;;;;;;;;;;;9.40;99.90;;;;;;5032115;28;19924;-63
2022/11/29 14:38:33;;;;;;;;;;;9.50;99.90;;;;;;5032193;28;19999;-62
2022/11/29 14:41:02;;;;;;;;;;;9.40;99.90;;;;;;5034829;28;19915;-63
2022/11/29 14:43:30;;;;;;;;;;;9.50;99.90;;;;;;5042414;28;19924;-64
2022/11/29 14:46:08;;;;;;;;;;;9.40;99.90;;;;;;5030033;28;20050;-63
2022/11/29 14:48:34;;;;;;;;;;;9.40;99.90;;;;;;5021949;28;19947;-63
2022/11/29 14:51:10;;;;;;;;;;;9.40;99.90;;;;;;5033394;28;19960;-64
2022/11/29 14:53:36;;;;;;;;;;;9.40;99.90;;;;;;5034293;28;20382;-63
2022/11/29 14:56:20;;;;;;;;;;;9.40;99.90;;;;;;5027870;28;20363;-62
2022/11/29 14:58:45;;;;;;;;;;;9.40;99.90;;;;;;5027600;28;19972;-64
2022/11/29 15:01:11;;;;;;;;;;;9.40;99.90;;;;;;5012265;28;19971;-63
2022/11/29 15:03:40;;;;;;;;;;;9.40;99.90;;;;;;5015536;28;19913;-63
2022/11/29 15:06:12;;;;;;;;;;;9.50;99.90;;;;;;5035645;28;20006;-63
2022/11/29 15:08:46;;;;;;;;;;;9.40;99.90;;;;;;5041802;28;19909;-63
2022/11/29 15:11:21;;;;;;;;;;;9.40;99.90;;;;;;5029692;28;19919;-63
2022/11/29 15:14:06;;;;;;;;;;;9.40;99.90;;;;;;5026484;28;19920;-63
2022/11/29 15:16:41;;;;;;;;;;;9.50;99.90;;;;;;5028989;28;19917;-63
2022/11/29 15:19:25;;;;;;;;;;;9.50;99.90;;;;;;5032746;28;19917;-63
2022/11/29 15:22:06;;;;;;;;;;;9.50;99.90;;;;;;5034891;28;20512;-63
2022/11/29 15:24:48;;;;;;;;;;;9.40;99.90;;;;;;5031761;28;19914;-63
2022/11/29 15:27:13;;;;;;;;;;;9.50;99.90;;;;;;5032785;28;19991;-64
2022/11/29 15:29:39;;;;;;;;;;;9.40;99.90;;;;;;5031663;28;20430;-62
2022/11/29 15:32:04;;;;;;;;;;;9.40;99.90;;;;;;5035113;28;20345;-63
2022/11/29 15:34:32;;;;;;;;;;;9.40;99.90;;;;;;5028342;28;19913;-62
2022/11/29 15:36:58;;;;;;;;;;;9.40;99.90;;;;;;5055177;22;20001;-61
2022/11/29 15:39:34;;;;;;;;;;;9.40;99.90;;;;;;5049355;28;19921;-61
2022/11/29 15:42:00;;;;;;;;;;;9.30;99.90;;;;;;5051307;28;19913;-61
2022/11/29 15:44:26;;;;;;;;;;;9.30;99.90;;;;;;5053953;28;20277;-62
2022/11/29 15:46:51;;;;;;;;;;;9.30;99.90;;;;;;5046010;28;20000;-62
2022/11/29 15:49:26;;;;;;;;;;;9.30;99.90;;;;;;5046946;28;19915;-61
2022/11/29 15:51:55;;;;;;;;;;;9.30;99.90;;;;;;5045645;28;19917;-63
2022/11/29 15:54:29;;;;;;;;;;;9.30;99.90;;;;;;5048771;28;20511;-62
2022/11/29 15:56:58;;;;;;;;;;;9.30;99.90;;;;;;5047571;28;20449;-62
2022/11/29 15:59:29;;;;;;;;;;;9.30;99.90;;;;;;5052468;28;19999;-62
2022/11/29 16:01:55;;;;;;;;;;;9.30;99.90;;;;;;5049307;28;19928;-62
2022/11/29 16:04:21;;;;;;;;;;;9.20;99.90;;;;;;5052090;28;20027;-62
2022/11/29 16:06:50;;;;;;;;;;;9.20;99.90;;;;;;5049345;28;21408;-60
2022/11/29 16:09:21;;;;;;;;;;;9.20;99.90;;;;;;5051093;28;20359;-62
2022/11/29 16:11:47;;;;;;;;;;;9.20;99.90;;;;;;5047269;28;19909;-62
2022/11/29 16:14:15;;;;;;;;;;;9.20;99.90;;;;;;5055353;28;19909;-62